sensor_id;sensor_type;location;lat;lon;timestamp;pressure;altitude;pressure_sealevel;temperature;humidity
9695;BME280;4690;52.422;13.486;2023-03-11T00:05:52;98573.81;;;3.55;96.94
9695;BME280;4690;52.422;13.486;2023-03-11T00:08:21;98583.94;;;3.60;96.61
9695;BME280;4690;52.422;13.486;2023-03-11T00:10:55;98598.88;;;3.63;96.18
9695;BME280;4690;52.422;13.486;2023-03-11T00:13:23;98616.34;;;3.67;96.35
9695;BME280;4690;52.422;13.486;2023-03-11T00:15:51;98623.03;;;3.64;95.53
9695;BME280;4690;52.422;13.486;2023-03-11T00:18:21;98625.41;;;3.61;96.32
9695;BME280;4690;52.422;13.486;2023-03-11T00:20:54;98642.22;;;3.63;95.70
9695;BME280;4690;52.422;13.486;2023-03-11T00:23:20;98644.09;;;3.50;94.93
9695;BME280;4690;52.422;13.486;2023-03-11T00:25:46;98653.56;;;3.29;94.90
9695;BME280;4690;52.422;13.486;2023-03-11T00:28:14;98654.97;;;3.20;94.63
9695;BME280;4690;52.422;13.486;2023-03-11T00:30:42;98676.66;;;3.02;94.30
9695;BME280;4690;52.422;13.486;2023-03-11T00:33:12;98679.09;;;2.91;94.91
9695;BME280;4690;52.422;13.486;2023-03-11T00:35:38;98689.31;;;2.89;94.93
9695;BME280;4690;52.422;13.486;2023-03-11T00:38:09;98694.72;;;2.89;94.54
9695;BME280;4690;52.422;13.486;2023-03-11T00:40:36;98691.28;;;2.82;94.79
9695;BME280;4690;52.422;13.486;2023-03-11T00:43:02;98697.38;;;2.59;95.34
9695;BME280;4690;52.422;13.486;2023-03-11T00:45:28;98696.88;;;2.51;96.14
9695;BME280;4690;52.422;13.486;2023-03-11T00:47:55;98705.56;;;2.53;95.94
9695;BME280;4690;52.422;13.486;2023-03-11T00:50:26;98708.56;;;2.63;95.58
9695;BME280;4690;52.422;13.486;2023-03-11T00:52:52;98712.34;;;2.62;95.56
9695;BME280;4690;52.422;13.486;2023-03-11T00:55:32;98711.13;;;2.58;95.91
9695;BME280;4690;52.422;13.486;2023-03-11T00:58:01;98720.44;;;2.62;95.78
9695;BME280;4690;52.422;13.486;2023-03-11T01:00:29;98726.22;;;2.65;95.82
9695;BME280;4690;52.422;13.486;2023-03-11T01:02:56;98740.03;;;2.57;95.75
9695;BME280;4690;52.422;13.486;2023-03-11T01:05:27;98744.22;;;2.53;95.77
9695;BME280;4690;52.422;13.486;2023-03-11T01:07:53;98752.56;;;2.52;95.91
9695;BME280;4690;52.422;13.486;2023-03-11T01:10:19;98761.50;;;2.52;96.18
9695;BME280;4690;52.422;13.486;2023-03-11T01:12:45;98768.78;;;2.52;95.95
9695;BME280;4690;52.422;13.486;2023-03-11T01:15:22;98784.19;;;2.51;95.91
9695;BME280;4690;52.422;13.486;2023-03-11T01:17:48;98781.09;;;2.47;95.68
9695;BME280;4690;52.422;13.486;2023-03-11T01:20:15;98781.94;;;2.48;96.13
9695;BME280;4690;52.422;13.486;2023-03-11T01:22:41;98805.88;;;2.44;96.24
9695;BME280;4690;52.422;13.486;2023-03-11T01:25:11;98802.72;;;2.47;96.09
9695;BME280;4690;52.422;13.486;2023-03-11T01:27:37;98812.13;;;2.45;96.06
9695;BME280;4690;52.422;13.486;2023-03-11T01:30:04;98822.44;;;2.30;96.40
9695;BME280;4690;52.422;13.486;2023-03-11T01:32:29;98824.06;;;2.31;96.56
9695;BME280;4690;52.422;13.486;2023-03-11T01:34:55;98831.97;;;2.32;96.59
9695;BME280;4690;52.422;13.486;2023-03-11T01:37:21;98845.31;;;2.27;96.77
9695;BME280;4690;52.422;13.486;2023-03-11T01:39:47;98847.75;;;2.35;96.75
9695;BME280;4690;52.422;13.486;2023-03-11T01:42:12;98849.00;;;2.33;96.30
9695;BME280;4690;52.422;13.486;2023-03-11T01:44:38;98854.84;;;2.30;96.49
9695;BME280;4690;52.422;13.486;2023-03-11T01:49:29;98869.97;;;2.37;96.09
9695;BME280;4690;52.422;13.486;2023-03-11T01:52:05;98877.47;;;2.35;96.35
9695;BME280;4690;52.422;13.486;2023-03-11T01:54:40;98894.13;;;2.32;96.46
9695;BME280;4690;52.422;13.486;2023-03-11T01:57:11;98899.09;;;2.35;96.43
9695;BME280;4690;52.422;13.486;2023-03-11T01:59:43;98915.38;;;2.29;96.82
9695;BME280;4690;52.422;13.486;2023-03-11T02:02:44;98920.34;;;2.25;96.64
9695;BME280;4690;52.422;13.486;2023-03-11T02:05:13;98926.25;;;2.15;97.08
9695;BME280;4690;52.422;13.486;2023-03-11T02:07:39;98937.25;;;2.14;97.24
9695;BME280;4690;52.422;13.486;2023-03-11T02:10:06;98945.16;;;2.15;97.28
9695;BME280;4690;52.422;13.486;2023-03-11T02:12:35;98953.28;;;2.15;97.30
9695;BME280;4690;52.422;13.486;2023-03-11T02:15:03;98966.34;;;2.18;96.54
9695;BME280;4690;52.422;13.486;2023-03-11T02:17:30;98974.03;;;2.21;96.68
9695;BME280;4690;52.422;13.486;2023-03-11T02:20:29;98975.94;;;2.14;96.92
9695;BME280;4690;52.422;13.486;2023-03-11T02:23:01;98987.31;;;2.23;96.67
9695;BME280;4690;52.422;13.486;2023-03-11T02:25:57;98996.94;;;2.12;96.98
9695;BME280;4690;52.422;13.486;2023-03-11T02:28:27;99011.28;;;2.13;96.90
9695;BME280;4690;52.422;13.486;2023-03-11T02:30:55;99027.06;;;2.16;97.46
9695;BME280;4690;52.422;13.486;2023-03-11T02:33:25;99032.47;;;2.16;96.67
9695;BME280;4690;52.422;13.486;2023-03-11T02:35:53;99040.81;;;2.08;97.08
9695;BME280;4690;52.422;13.486;2023-03-11T02:38:19;99051.22;;;2.04;97.59
9695;BME280;4690;52.422;13.486;2023-03-11T02:40:52;99058.47;;;2.10;97.29
9695;BME280;4690;52.422;13.486;2023-03-11T02:43:24;99076.53;;;2.10;97.01
9695;BME280;4690;52.422;13.486;2023-03-11T02:45:53;99079.25;;;2.10;97.47
9695;BME280;4690;52.422;13.486;2023-03-11T02:48:21;99094.22;;;2.12;97.89
9695;BME280;4690;52.422;13.486;2023-03-11T02:50:48;99104.38;;;2.17;97.70
9695;BME280;4690;52.422;13.486;2023-03-11T02:53:15;99108.13;;;2.22;97.12
9695;BME280;4690;52.422;13.486;2023-03-11T02:55:41;99120.19;;;2.20;97.19
9695;BME280;4690;52.422;13.486;2023-03-11T02:58:06;99129.94;;;2.21;97.12
9695;BME280;4690;52.422;13.486;2023-03-11T03:00:33;99132.44;;;2.22;97.41
9695;BME280;4690;52.422;13.486;2023-03-11T03:02:59;99141.78;;;2.20;97.59
9695;BME280;4690;52.422;13.486;2023-03-11T03:05:25;99155.66;;;2.30;97.48
9695;BME280;4690;52.422;13.486;2023-03-11T03:07:51;99159.81;;;2.33;96.87
9695;BME280;4690;52.422;13.486;2023-03-11T03:10:19;99171.50;;;2.27;96.87
9695;BME280;4690;52.422;13.486;2023-03-11T03:12:45;99181.03;;;2.29;97.25
9695;BME280;4690;52.422;13.486;2023-03-11T03:15:12;99186.28;;;2.17;97.51
9695;BME280;4690;52.422;13.486;2023-03-11T03:17:40;99197.50;;;2.21;97.93
9695;BME280;4690;52.422;13.486;2023-03-11T03:20:07;99201.25;;;2.20;97.76
9695;BME280;4690;52.422;13.486;2023-03-11T03:22:37;99215.97;;;2.24;97.28
9695;BME280;4690;52.422;13.486;2023-03-11T03:25:04;99224.09;;;2.24;97.34
9695;BME280;4690;52.422;13.486;2023-03-11T03:27:32;99231.38;;;2.23;97.36
9695;BME280;4690;52.422;13.486;2023-03-11T03:29:58;99250.06;;;2.25;97.17
9695;BME280;4690;52.422;13.486;2023-03-11T03:32:24;99249.03;;;2.19;97.66
9695;BME280;4690;52.422;13.486;2023-03-11T03:34:49;99279.59;;;2.27;96.93
9695;BME280;4690;52.422;13.486;2023-03-11T03:37:15;99294.97;;;2.26;97.14
9695;BME280;4690;52.422;13.486;2023-03-11T03:39:41;99286.25;;;2.17;97.17
9695;BME280;4690;52.422;13.486;2023-03-11T03:42:06;99294.56;;;2.16;97.91
9695;BME280;4690;52.422;13.486;2023-03-11T03:44:32;99308.69;;;2.18;98.03
9695;BME280;4690;52.422;13.486;2023-03-11T03:46:58;99328.84;;;2.22;97.67
9695;BME280;4690;52.422;13.486;2023-03-11T03:49:24;99323.03;;;2.18;97.86
9695;BME280;4690;52.422;13.486;2023-03-11T03:51:49;99335.72;;;2.18;97.58
9695;BME280;4690;52.422;13.486;2023-03-11T03:54:15;99347.59;;;2.17;97.22
9695;BME280;4690;52.422;13.486;2023-03-11T03:56:41;99348.19;;;2.12;97.76
9695;BME280;4690;52.422;13.486;2023-03-11T03:59:07;99369.81;;;2.12;97.79
9695;BME280;4690;52.422;13.486;2023-03-11T04:01:32;99373.75;;;2.16;97.74
9695;BME280;4690;52.422;13.486;2023-03-11T04:03:58;99377.50;;;2.22;97.73
9695;BME280;4690;52.422;13.486;2023-03-11T04:06:26;99390.38;;;2.13;97.74
9695;BME280;4690;52.422;13.486;2023-03-11T04:08:53;99397.88;;;2.11;97.29
9695;BME280;4690;52.422;13.486;2023-03-11T04:11:20;99399.72;;;2.11;97.85
9695;BME280;4690;52.422;13.486;2023-03-11T04:13:46;99415.94;;;2.11;97.88
9695;BME280;4690;52.422;13.486;2023-03-11T04:16:19;99415.97;;;2.17;97.46
9695;BME280;4690;52.422;13.486;2023-03-11T04:18:46;99425.94;;;2.17;97.85
9695;BME280;4690;52.422;13.486;2023-03-11T04:21:12;99432.97;;;2.05;97.62
9695;BME280;4690;52.422;13.486;2023-03-11T04:23:38;99435.72;;;2.11;97.99
9695;BME280;4690;52.422;13.486;2023-03-11T04:26:04;99451.69;;;2.13;98.04
9695;BME280;4690;52.422;13.486;2023-03-11T04:28:30;99451.09;;;2.17;97.47
9695;BME280;4690;52.422;13.486;2023-03-11T04:30:56;99460.03;;;2.11;97.94
9695;BME280;4690;52.422;13.486;2023-03-11T04:33:22;99465.22;;;2.13;97.80
9695;BME280;4690;52.422;13.486;2023-03-11T04:35:48;99465.19;;;2.06;97.73
9695;BME280;4690;52.422;13.486;2023-03-11T04:38:14;99474.16;;;2.13;97.85
9695;BME280;4690;52.422;13.486;2023-03-11T04:40:40;99491.19;;;2.14;97.80
9695;BME280;4690;52.422;13.486;2023-03-11T04:43:05;99488.47;;;2.14;97.88
9695;BME280;4690;52.422;13.486;2023-03-11T04:45:31;99497.06;;;2.24;97.60
9695;BME280;4690;52.422;13.486;2023-03-11T04:47:58;99502.88;;;2.21;97.21
9695;BME280;4690;52.422;13.486;2023-03-11T04:50:23;99510.97;;;2.14;97.19
9695;BME280;4690;52.422;13.486;2023-03-11T04:52:50;99518.00;;;2.09;97.32
9695;BME280;4690;52.422;13.486;2023-03-11T04:55:16;99530.47;;;2.16;97.75
9695;BME280;4690;52.422;13.486;2023-03-11T04:57:42;99524.25;;;2.16;97.75
9695;BME280;4690;52.422;13.486;2023-03-11T05:00:13;99536.06;;;2.08;97.64
9695;BME280;4690;52.422;13.486;2023-03-11T05:02:41;99539.63;;;2.15;98.38
9695;BME280;4690;52.422;13.486;2023-03-11T05:05:08;99540.88;;;2.13;97.92
9695;BME280;4690;52.422;13.486;2023-03-11T05:07:35;99552.75;;;2.18;97.88
9695;BME280;4690;52.422;13.486;2023-03-11T05:10:03;99554.44;;;2.26;97.83
9695;BME280;4690;52.422;13.486;2023-03-11T05:12:29;99571.09;;;2.30;97.50
9695;BME280;4690;52.422;13.486;2023-03-11T05:14:55;99575.25;;;2.26;97.36
9695;BME280;4690;52.422;13.486;2023-03-11T05:17:20;99580.84;;;2.31;97.37
9695;BME280;4690;52.422;13.486;2023-03-11T05:19:46;99597.72;;;2.33;97.16
9695;BME280;4690;52.422;13.486;2023-03-11T05:22:13;99603.75;;;2.35;97.03
9695;BME280;4690;52.422;13.486;2023-03-11T05:24:39;99614.34;;;2.36;96.46
9695;BME280;4690;52.422;13.486;2023-03-11T05:27:05;99624.72;;;2.26;97.34
9695;BME280;4690;52.422;13.486;2023-03-11T05:29:31;99628.06;;;2.28;97.09
9695;BME280;4690;52.422;13.486;2023-03-11T05:31:57;99633.84;;;2.25;97.16
9695;BME280;4690;52.422;13.486;2023-03-11T05:34:23;99641.13;;;2.24;97.44
9695;BME280;4690;52.422;13.486;2023-03-11T05:36:49;99649.47;;;2.30;96.74
9695;BME280;4690;52.422;13.486;2023-03-11T05:39:14;99642.59;;;2.27;97.20
9695;BME280;4690;52.422;13.486;2023-03-11T05:41:40;99655.69;;;2.30;96.86
9695;BME280;4690;52.422;13.486;2023-03-11T05:44:06;99665.25;;;2.26;97.08
9695;BME280;4690;52.422;13.486;2023-03-11T05:46:32;99662.75;;;2.24;97.59
9695;BME280;4690;52.422;13.486;2023-03-11T05:48:59;99670.25;;;2.29;97.41
9695;BME280;4690;52.422;13.486;2023-03-11T05:51:25;99674.78;;;2.22;97.06
9695;BME280;4690;52.422;13.486;2023-03-11T05:53:51;99689.59;;;2.26;97.13
9695;BME280;4690;52.422;13.486;2023-03-11T05:56:20;99696.47;;;2.29;97.08
9695;BME280;4690;52.422;13.486;2023-03-11T05:58:48;99709.16;;;2.28;97.21
9695;BME280;4690;52.422;13.486;2023-03-11T06:01:18;99707.88;;;2.24;97.46
9695;BME280;4690;52.422;13.486;2023-03-11T06:03:45;99708.91;;;2.23;97.71
9695;BME280;4690;52.422;13.486;2023-03-11T06:06:12;99709.78;;;2.30;97.56
9695;BME280;4690;52.422;13.486;2023-03-11T06:08:38;99713.31;;;2.31;97.43
9695;BME280;4690;52.422;13.486;2023-03-11T06:11:09;99727.06;;;2.36;97.18
9695;BME280;4690;52.422;13.486;2023-03-11T06:13:36;99727.69;;;2.31;97.18
9695;BME280;4690;52.422;13.486;2023-03-11T06:16:03;99735.38;;;2.34;97.12
9695;BME280;4690;52.422;13.486;2023-03-11T06:18:29;99742.06;;;2.38;97.06
9695;BME280;4690;52.422;13.486;2023-03-11T06:20:59;99738.94;;;2.41;96.57
9695;BME280;4690;52.422;13.486;2023-03-11T06:23:26;99756.19;;;2.34;96.59
9695;BME280;4690;52.422;13.486;2023-03-11T06:26:02;99757.84;;;2.35;96.31
9695;BME280;4690;52.422;13.486;2023-03-11T06:28:29;99759.91;;;2.33;96.38
9695;BME280;4690;52.422;13.486;2023-03-11T06:30:55;99768.84;;;2.33;96.73
9695;BME280;4690;52.422;13.486;2023-03-11T06:33:24;99775.09;;;2.34;96.56
9695;BME280;4690;52.422;13.486;2023-03-11T06:36:01;99782.34;;;2.33;95.88
9695;BME280;4690;52.422;13.486;2023-03-11T06:38:28;99796.66;;;2.27;96.71
9695;BME280;4690;52.422;13.486;2023-03-11T06:40:58;99798.09;;;2.23;96.21
9695;BME280;4690;52.422;13.486;2023-03-11T06:43:23;99807.28;;;2.29;96.94
9695;BME280;4690;52.422;13.486;2023-03-11T06:45:49;99813.13;;;2.32;96.64
9695;BME280;4690;52.422;13.486;2023-03-11T06:48:15;99814.78;;;2.33;96.46
9695;BME280;4690;52.422;13.486;2023-03-11T06:50:40;99827.03;;;2.29;96.24
9695;BME280;4690;52.422;13.486;2023-03-11T06:53:06;99823.03;;;2.25;96.19
9695;BME280;4690;52.422;13.486;2023-03-11T06:55:34;99830.13;;;2.26;96.55
9695;BME280;4690;52.422;13.486;2023-03-11T06:58:00;99851.25;;;2.16;95.91
9695;BME280;4690;52.422;13.486;2023-03-11T07:00:27;99846.88;;;2.15;96.38
9695;BME280;4690;52.422;13.486;2023-03-11T07:02:53;99866.31;;;2.04;96.96
9695;BME280;4690;52.422;13.486;2023-03-11T07:05:19;99869.16;;;2.17;97.35
9695;BME280;4690;52.422;13.486;2023-03-11T07:07:44;99862.06;;;2.16;96.98
9695;BME280;4690;52.422;13.486;2023-03-11T07:10:11;99871.47;;;2.20;97.06
9695;BME280;4690;52.422;13.486;2023-03-11T07:12:36;99876.34;;;2.31;96.53
9695;BME280;4690;52.422;13.486;2023-03-11T07:15:03;99880.72;;;2.32;95.96
9695;BME280;4690;52.422;13.486;2023-03-11T07:17:28;99889.59;;;2.26;96.16
9695;BME280;4690;52.422;13.486;2023-03-11T07:19:54;99895.44;;;2.30;96.43
9695;BME280;4690;52.422;13.486;2023-03-11T07:22:20;99901.31;;;2.33;95.95
9695;BME280;4690;52.422;13.486;2023-03-11T07:24:47;99916.78;;;2.39;95.97
9695;BME280;4690;52.422;13.486;2023-03-11T07:27:14;99920.47;;;2.38;95.47
9695;BME280;4690;52.422;13.486;2023-03-11T07:29:40;99929.03;;;2.42;95.37
9695;BME280;4690;52.422;13.486;2023-03-11T07:32:07;99940.94;;;2.47;95.22
9695;BME280;4690;52.422;13.486;2023-03-11T07:34:33;99937.09;;;2.35;94.90
9695;BME280;4690;52.422;13.486;2023-03-11T07:36:59;99941.34;;;2.44;94.85
9695;BME280;4690;52.422;13.486;2023-03-11T07:39:25;99956.94;;;2.42;95.05
9695;BME280;4690;52.422;13.486;2023-03-11T07:41:50;99957.75;;;2.43;94.75
9695;BME280;4690;52.422;13.486;2023-03-11T07:44:17;99957.94;;;2.41;93.93
9695;BME280;4690;52.422;13.486;2023-03-11T07:46:44;99969.16;;;2.38;93.92
9695;BME280;4690;52.422;13.486;2023-03-11T07:49:10;99971.03;;;2.38;94.18
9695;BME280;4690;52.422;13.486;2023-03-11T07:51:38;99981.28;;;2.42;94.18
9695;BME280;4690;52.422;13.486;2023-03-11T07:54:10;99982.50;;;2.40;93.79
9695;BME280;4690;52.422;13.486;2023-03-11T07:56:36;99985.94;;;2.55;94.52
9695;BME280;4690;52.422;13.486;2023-03-11T07:59:03;99998.88;;;2.81;95.14
9695;BME280;4690;52.422;13.486;2023-03-11T08:01:32;100004.28;;;3.03;94.64
9695;BME280;4690;52.422;13.486;2023-03-11T08:04:06;100013.47;;;3.08;94.13
9695;BME280;4690;52.422;13.486;2023-03-11T08:06:35;100019.47;;;3.32;92.73
9695;BME280;4690;52.422;13.486;2023-03-11T08:09:07;100026.28;;;3.21;91.32
9695;BME280;4690;52.422;13.486;2023-03-11T08:11:34;100020.88;;;3.21;90.67
9695;BME280;4690;52.422;13.486;2023-03-11T08:14:00;100038.34;;;3.19;91.33
9695;BME280;4690;52.422;13.486;2023-03-11T08:16:26;100041.88;;;3.19;90.57
9695;BME280;4690;52.422;13.486;2023-03-11T08:18:53;100048.69;;;3.15;90.18
9695;BME280;4690;52.422;13.486;2023-03-11T08:21:23;100059.41;;;3.23;90.96
9695;BME280;4690;52.422;13.486;2023-03-11T08:23:50;100060.75;;;3.12;89.97
9695;BME280;4690;52.422;13.486;2023-03-11T08:26:20;100067.56;;;3.02;90.98
9695;BME280;4690;52.422;13.486;2023-03-11T08:28:49;100071.25;;;3.44;91.54
9695;BME280;4690;52.422;13.486;2023-03-11T08:31:22;100080.38;;;3.43;89.29
9695;BME280;4690;52.422;13.486;2023-03-11T08:33:50;100096.59;;;3.36;88.90
9695;BME280;4690;52.422;13.486;2023-03-11T08:36:18;100092.81;;;3.58;90.51
9695;BME280;4690;52.422;13.486;2023-03-11T08:38:44;100091.47;;;3.82;91.82
9695;BME280;4690;52.422;13.486;2023-03-11T08:41:10;100092.09;;;4.19;90.00
9695;BME280;4690;52.422;13.486;2023-03-11T08:43:37;100098.97;;;4.15;87.42
9695;BME280;4690;52.422;13.486;2023-03-11T08:46:05;100104.38;;;4.63;88.73
9695;BME280;4690;52.422;13.486;2023-03-11T08:48:32;100114.28;;;4.84;84.40
9695;BME280;4690;52.422;13.486;2023-03-11T08:50:58;100119.28;;;4.94;85.72
9695;BME280;4690;52.422;13.486;2023-03-11T08:53:24;100127.41;;;4.81;84.74
9695;BME280;4690;52.422;13.486;2023-03-11T08:55:51;100121.66;;;4.49;82.56
9695;BME280;4690;52.422;13.486;2023-03-11T08:58:18;100132.41;;;4.22;83.30
9695;BME280;4690;52.422;13.486;2023-03-11T09:00:45;100131.53;;;3.80;83.56
9695;BME280;4690;52.422;13.486;2023-03-11T09:03:12;100148.91;;;3.93;85.96
9695;BME280;4690;52.422;13.486;2023-03-11T09:05:38;100149.69;;;4.21;87.56
9695;BME280;4690;52.422;13.486;2023-03-11T09:08:04;100161.63;;;4.75;86.82
9695;BME280;4690;52.422;13.486;2023-03-11T09:10:30;100157.59;;;4.64;84.47
9695;BME280;4690;52.422;13.486;2023-03-11T09:12:55;100159.47;;;4.57;84.12
9695;BME280;4690;52.422;13.486;2023-03-11T09:15:21;100161.00;;;4.73;83.15
9695;BME280;4690;52.422;13.486;2023-03-11T09:17:48;100174.53;;;4.66;83.19
9695;BME280;4690;52.422;13.486;2023-03-11T09:20:14;100169.09;;;4.66;83.42
9695;BME280;4690;52.422;13.486;2023-03-11T09:22:40;100175.75;;;4.57;82.60
9695;BME280;4690;52.422;13.486;2023-03-11T09:25:07;100174.38;;;4.33;83.69
9695;BME280;4690;52.422;13.486;2023-03-11T09:27:32;100180.44;;;4.35;84.50
9695;BME280;4690;52.422;13.486;2023-03-11T09:29:58;100177.28;;;4.32;83.72
9695;BME280;4690;52.422;13.486;2023-03-11T09:32:24;100179.78;;;4.33;84.41
9695;BME280;4690;52.422;13.486;2023-03-11T09:34:50;100189.94;;;4.18;84.36
9695;BME280;4690;52.422;13.486;2023-03-11T09:37:15;100184.84;;;4.08;83.66
9695;BME280;4690;52.422;13.486;2023-03-11T09:39:41;100192.91;;;4.23;84.27
9695;BME280;4690;52.422;13.486;2023-03-11T09:42:24;100204.16;;;4.20;85.07
9695;BME280;4690;52.422;13.486;2023-03-11T09:45:09;100208.41;;;4.36;85.31
9695;BME280;4690;52.422;13.486;2023-03-11T09:48:20;100212.41;;;4.40;85.09
9695;BME280;4690;52.422;13.486;2023-03-11T09:50:58;100218.34;;;4.57;85.75
9695;BME280;4690;52.422;13.486;2023-03-11T09:53:44;100227.38;;;4.36;84.88
9695;BME280;4690;52.422;13.486;2023-03-11T09:56:17;100220.53;;;4.40;84.41
9695;BME280;4690;52.422;13.486;2023-03-11T09:58:49;100217.38;;;4.36;84.20
9695;BME280;4690;52.422;13.486;2023-03-11T10:01:26;100234.97;;;3.91;84.07
9695;BME280;4690;52.422;13.486;2023-03-11T10:06:30;100251.28;;;3.69;86.41
9695;BME280;4690;52.422;13.486;2023-03-11T10:15:53;100258.72;;;3.61;88.24
9695;BME280;4690;52.422;13.486;2023-03-11T10:18:46;100273.06;;;3.40;88.02
9695;BME280;4690;52.422;13.486;2023-03-11T10:21:46;100275.31;;;3.36;89.17
9695;BME280;4690;52.422;13.486;2023-03-11T10:27:13;100287.25;;;3.63;89.08
9695;BME280;4690;52.422;13.486;2023-03-11T10:29:59;100284.72;;;3.40;87.98
9695;BME280;4690;52.422;13.486;2023-03-11T10:35:21;100292.41;;;3.79;89.06
9695;BME280;4690;52.422;13.486;2023-03-11T10:40:34;100298.91;;;4.28;87.26
9695;BME280;4690;52.422;13.486;2023-03-11T10:43:08;100299.72;;;4.00;85.73
9695;BME280;4690;52.422;13.486;2023-03-11T10:45:41;100301.13;;;3.96;87.18
9695;BME280;4690;52.422;13.486;2023-03-11T10:48:12;100312.63;;;4.20;87.55
9695;BME280;4690;52.422;13.486;2023-03-11T10:51:03;100315.56;;;4.53;87.30
9695;BME280;4690;52.422;13.486;2023-03-11T10:53:50;100302.97;;;4.74;85.66
9695;BME280;4690;52.422;13.486;2023-03-11T10:56:35;100306.38;;;4.89;84.53
9695;BME280;4690;52.422;13.486;2023-03-11T10:59:05;100303.91;;;4.87;84.42
9695;BME280;4690;52.422;13.486;2023-03-11T11:02:29;100312.13;;;4.38;84.23
9695;BME280;4690;52.422;13.486;2023-03-11T11:07:47;100319.31;;;4.52;84.89
9695;BME280;4690;52.422;13.486;2023-03-11T11:10:24;100324.34;;;4.55;85.06
9695;BME280;4690;52.422;13.486;2023-03-11T11:12:54;100323.47;;;4.48;83.74
9695;BME280;4690;52.422;13.486;2023-03-11T11:18:22;100329.72;;;4.48;83.55
9695;BME280;4690;52.422;13.486;2023-03-11T11:23:49;100340.28;;;4.37;85.01
9695;BME280;4690;52.422;13.486;2023-03-11T11:26:25;100330.16;;;4.52;84.35
9695;BME280;4690;52.422;13.486;2023-03-11T11:31:44;100344.56;;;4.53;84.87
9695;BME280;4690;52.422;13.486;2023-03-11T11:34:32;100342.16;;;4.99;83.72
9695;BME280;4690;52.422;13.486;2023-03-11T11:37:03;100338.06;;;5.16;83.57
9695;BME280;4690;52.422;13.486;2023-03-11T11:39:46;100339.16;;;5.22;81.07
9695;BME280;4690;52.422;13.486;2023-03-11T11:42:18;100348.88;;;5.03;80.89
9695;BME280;4690;52.422;13.486;2023-03-11T11:44:50;100348.00;;;4.96;81.29
9695;BME280;4690;52.422;13.486;2023-03-11T11:47:31;100352.91;;;4.79;82.00
9695;BME280;4690;52.422;13.486;2023-03-11T11:50:03;100349.53;;;4.70;80.85
9695;BME280;4690;52.422;13.486;2023-03-11T11:52:43;100354.25;;;4.62;80.85
9695;BME280;4690;52.422;13.486;2023-03-11T11:55:25;100351.66;;;4.25;83.61
9695;BME280;4690;52.422;13.486;2023-03-11T11:57:51;100352.44;;;4.47;84.57
9695;BME280;4690;52.422;13.486;2023-03-11T12:00:29;100351.47;;;4.55;84.61
9695;BME280;4690;52.422;13.486;2023-03-11T12:03:18;100350.31;;;4.99;84.04
9695;BME280;4690;52.422;13.486;2023-03-11T12:05:58;100354.97;;;5.12;81.71
9695;BME280;4690;52.422;13.486;2023-03-11T12:08:54;100358.16;;;5.77;82.65
9695;BME280;4690;52.422;13.486;2023-03-11T12:11:48;100350.22;;;5.82;79.29
9695;BME280;4690;52.422;13.486;2023-03-11T12:16:57;100357.63;;;6.08;78.53
9695;BME280;4690;52.422;13.486;2023-03-11T12:19:41;100364.28;;;5.92;77.77
9695;BME280;4690;52.422;13.486;2023-03-11T12:25:48;100365.06;;;5.79;77.12
9695;BME280;4690;52.422;13.486;2023-03-11T12:31:07;100366.81;;;6.87;78.44
9695;BME280;4690;52.422;13.486;2023-03-11T12:33:44;100365.84;;;7.39;72.94
9695;BME280;4690;52.422;13.486;2023-03-11T12:36:40;100376.03;;;7.64;71.77
9695;BME280;4690;52.422;13.486;2023-03-11T12:39:22;100374.72;;;7.15;69.94
9695;BME280;4690;52.422;13.486;2023-03-11T12:44:36;100389.28;;;6.69;72.18
9695;BME280;4690;52.422;13.486;2023-03-11T12:49:47;100380.44;;;6.00;73.54
9695;BME280;4690;52.422;13.486;2023-03-11T12:54:47;100383.66;;;5.21;74.85
9695;BME280;4690;52.422;13.486;2023-03-11T13:00:23;100404.66;;;4.78;77.68
9695;BME280;4690;52.422;13.486;2023-03-11T13:03:25;100406.00;;;4.88;78.82
9695;BME280;4690;52.422;13.486;2023-03-11T13:06:29;100407.09;;;4.94;77.10
9695;BME280;4690;52.422;13.486;2023-03-11T13:08:59;100415.38;;;5.14;77.89
9695;BME280;4690;52.422;13.486;2023-03-11T13:11:35;100405.41;;;5.28;77.01
9695;BME280;4690;52.422;13.486;2023-03-11T13:16:42;100412.09;;;4.90;71.98
9695;BME280;4690;52.422;13.486;2023-03-11T13:21:58;100420.50;;;4.46;70.94
9695;BME280;4690;52.422;13.486;2023-03-11T13:35:49;100434.06;;;4.67;70.48
9695;BME280;4690;52.422;13.486;2023-03-11T13:41:34;100438.44;;;5.31;68.61
9695;BME280;4690;52.422;13.486;2023-03-11T13:44:35;100448.56;;;5.44;68.65
9695;BME280;4690;52.422;13.486;2023-03-11T13:47:09;100449.66;;;5.50;67.50
9695;BME280;4690;52.422;13.486;2023-03-11T13:50:08;100448.09;;;5.40;64.97
9695;BME280;4690;52.422;13.486;2023-03-11T13:52:47;100468.19;;;5.11;64.95
9695;BME280;4690;52.422;13.486;2023-03-11T13:55:33;100468.50;;;4.95;65.06
9695;BME280;4690;52.422;13.486;2023-03-11T13:58:00;100463.72;;;4.97;65.13
9695;BME280;4690;52.422;13.486;2023-03-11T14:00:30;100468.59;;;5.08;65.47
9695;BME280;4690;52.422;13.486;2023-03-11T14:03:10;100470.63;;;5.00;66.53
9695;BME280;4690;52.422;13.486;2023-03-11T14:05:44;100468.44;;;5.16;66.14
9695;BME280;4690;52.422;13.486;2023-03-11T14:08:27;100467.91;;;5.28;63.14
9695;BME280;4690;52.422;13.486;2023-03-11T14:10:58;100464.38;;;5.34;63.40
9695;BME280;4690;52.422;13.486;2023-03-11T14:13:36;100480.28;;;5.37;63.60
9695;BME280;4690;52.422;13.486;2023-03-11T14:16:16;100471.38;;;5.50;64.50
9695;BME280;4690;52.422;13.486;2023-03-11T14:18:46;100482.19;;;5.78;63.29
9695;BME280;4690;52.422;13.486;2023-03-11T14:21:19;100479.00;;;6.16;60.87
9695;BME280;4690;52.422;13.486;2023-03-11T14:23:52;100477.16;;;6.23;58.86
9695;BME280;4690;52.422;13.486;2023-03-11T14:26:29;100487.66;;;6.33;60.30
9695;BME280;4690;52.422;13.486;2023-03-11T14:29:14;100483.47;;;6.37;59.34
9695;BME280;4690;52.422;13.486;2023-03-11T14:31:42;100482.44;;;6.44;59.85
9695;BME280;4690;52.422;13.486;2023-03-11T14:34:25;100478.66;;;6.39;59.96
9695;BME280;4690;52.422;13.486;2023-03-11T14:37:00;100482.00;;;6.34;58.73
9695;BME280;4690;52.422;13.486;2023-03-11T14:39:37;100486.66;;;6.54;59.14
9695;BME280;4690;52.422;13.486;2023-03-11T14:44:40;100496.03;;;6.38;57.40
9695;BME280;4690;52.422;13.486;2023-03-11T14:47:32;100513.72;;;6.14;58.47
9695;BME280;4690;52.422;13.486;2023-03-11T14:50:01;100501.84;;;5.80;58.40
9695;BME280;4690;52.422;13.486;2023-03-11T14:52:44;100503.19;;;5.56;59.54
9695;BME280;4690;52.422;13.486;2023-03-11T14:55:22;100506.34;;;5.59;59.58